createdAt,value
2017-02-15T00:00:17.422Z,0
2017-02-15T00:01:26.423Z,0
2017-02-15T00:02:36.348Z,0
2017-02-15T00:03:45.341Z,0
2017-02-15T00:04:54.316Z,0
2017-02-15T00:06:03.299Z,0
2017-02-15T00:07:13.009Z,0
2017-02-15T00:08:22.005Z,0
2017-02-15T00:09:31.756Z,0
2017-02-15T00:10:40.923Z,0
2017-02-15T00:11:50.039Z,0
2017-02-15T00:12:59.026Z,0
2017-02-15T00:14:08.000Z,0
2017-02-15T00:15:17.391Z,0
2017-02-15T00:16:26.561Z,0
2017-02-15T00:17:36.017Z,0
2017-02-15T00:18:45.185Z,0
2017-02-15T00:19:54.288Z,0
2017-02-15T00:21:03.278Z,0
2017-02-15T00:22:12.265Z,0
2017-02-15T00:23:21.257Z,0
2017-02-15T00:24:30.242Z,0
2017-02-15T00:25:39.315Z,0
2017-02-15T00:26:48.815Z,0
2017-02-15T00:27:57.800Z,0
2017-02-15T00:29:07.189Z,0
2017-02-15T00:30:16.685Z,0
2017-02-15T00:31:25.960Z,0
2017-02-15T00:32:35.411Z,0
2017-02-15T00:33:44.390Z,0
2017-02-15T00:34:53.494Z,0
2017-02-15T00:36:02.492Z,0
2017-02-15T00:37:12.197Z,0
2017-02-15T00:38:21.268Z,0
2017-02-15T00:39:30.256Z,0
2017-02-15T00:40:40.424Z,0
2017-02-15T00:41:49.515Z,0
2017-02-15T00:42:58.509Z,0
2017-02-15T00:44:08.242Z,0
2017-02-15T00:45:17.728Z,0
2017-02-15T00:46:26.721Z,0
2017-02-15T00:47:35.941Z,0
2017-02-15T00:48:44.946Z,0
2017-02-15T00:49:54.795Z,0
2017-02-15T00:51:03.773Z,0
2017-02-15T00:52:12.999Z,0
2017-02-15T00:53:22.367Z,0
2017-02-15T00:54:31.350Z,0
2017-02-15T00:55:40.547Z,0
2017-02-15T00:56:49.682Z,0
2017-02-15T00:57:58.821Z,0
2017-02-15T00:59:07.809Z,0
2017-02-15T01:00:16.981Z,0
2017-02-15T01:01:26.407Z,0
2017-02-15T01:02:35.662Z,0
2017-02-15T01:03:45.311Z,0
2017-02-15T01:04:54.936Z,0
2017-02-15T01:06:04.571Z,0
2017-02-15T01:07:14.164Z,0
2017-02-15T01:08:23.657Z,0
2017-02-15T01:09:32.651Z,0
2017-02-15T01:10:41.751Z,0
2017-02-15T01:11:50.826Z,0
2017-02-15T01:12:59.917Z,0
2017-02-15T01:14:09.035Z,0
2017-02-15T01:15:18.129Z,0
2017-02-15T01:16:27.125Z,0
2017-02-15T01:17:36.108Z,0
2017-02-15T01:18:45.190Z,0
2017-02-15T01:19:54.190Z,0
2017-02-15T01:21:03.473Z,0
2017-02-15T01:22:12.632Z,0
2017-02-15T01:23:21.627Z,0
2017-02-15T01:24:30.717Z,0
2017-02-15T01:25:39.793Z,0
2017-02-15T01:26:48.780Z,0
2017-02-15T01:27:57.761Z,0
2017-02-15T01:29:06.763Z,0
2017-02-15T01:30:16.173Z,0
2017-02-15T01:31:25.164Z,0
2017-02-15T01:32:34.343Z,0
2017-02-15T01:33:43.359Z,0
2017-02-15T01:34:52.336Z,0
2017-02-15T01:36:01.346Z,0
2017-02-15T01:37:10.437Z,0
2017-02-15T01:38:19.435Z,0
2017-02-15T01:39:28.429Z,0
2017-02-15T01:40:37.429Z,0
2017-02-15T01:41:46.867Z,0
2017-02-15T01:42:55.841Z,0
2017-02-15T01:44:04.829Z,0
2017-02-15T01:45:14.220Z,0
2017-02-15T01:46:23.204Z,0
2017-02-15T01:47:32.197Z,0
2017-02-15T01:48:41.179Z,0
2017-02-15T01:49:50.178Z,0
2017-02-15T01:50:59.473Z,0
2017-02-15T01:52:08.471Z,0
2017-02-15T01:53:18.017Z,0
2017-02-15T01:54:27.512Z,0
2017-02-15T01:55:37.006Z,0
2017-02-15T01:56:47.023Z,0
2017-02-15T01:57:56.013Z,0
2017-02-15T01:59:05.011Z,0
2017-02-15T02:00:14.467Z,0
2017-02-15T02:01:24.241Z,0
2017-02-15T02:02:33.649Z,0
2017-02-15T02:03:44.333Z,0
2017-02-15T02:04:54.020Z,0
2017-02-15T02:06:03.502Z,0
2017-02-15T02:07:12.496Z,0
2017-02-15T02:08:22.229Z,0
2017-02-15T02:09:31.583Z,0
2017-02-15T02:10:41.387Z,0
2017-02-15T02:11:51.148Z,0
2017-02-15T02:13:00.139Z,0
2017-02-15T02:14:09.638Z,0
2017-02-15T02:15:18.635Z,0
2017-02-15T02:16:27.710Z,0
2017-02-15T02:17:36.698Z,0
2017-02-15T02:18:45.687Z,0
2017-02-15T02:19:54.774Z,0
2017-02-15T02:21:06.329Z,0
2017-02-15T02:22:15.842Z,0
2017-02-15T02:23:24.979Z,0
2017-02-15T02:24:34.852Z,0
2017-02-15T02:25:43.934Z,0
2017-02-15T02:26:53.213Z,0
2017-02-15T02:28:02.296Z,0
2017-02-15T02:29:12.018Z,0
2017-02-15T02:30:21.010Z,0
2017-02-15T02:31:31.239Z,0
2017-02-15T02:32:40.729Z,0
2017-02-15T02:33:49.920Z,0
2017-02-15T02:35:00.158Z,0
2017-02-15T02:36:09.143Z,0
2017-02-15T02:37:18.960Z,0
2017-02-15T02:38:28.056Z,0
2017-02-15T02:39:37.769Z,0
2017-02-15T02:40:46.893Z,0
2017-02-15T02:41:56.955Z,0
2017-02-15T02:43:06.568Z,0
2017-02-15T02:44:16.243Z,0
2017-02-15T02:45:25.980Z,0
2017-02-15T02:46:34.969Z,0
2017-02-15T02:47:45.050Z,0
2017-02-15T02:48:54.732Z,0
2017-02-15T02:50:04.312Z,0
2017-02-15T02:51:14.473Z,0
2017-02-15T02:52:24.295Z,0
2017-02-15T02:53:34.775Z,0
2017-02-15T02:54:43.759Z,0
2017-02-15T02:55:53.892Z,0
2017-02-15T02:57:02.883Z,0
2017-02-15T02:58:12.751Z,0
2017-02-15T02:59:22.462Z,0
2017-02-15T03:00:31.548Z,0
2017-02-15T03:01:40.684Z,0
2017-02-15T03:02:50.612Z,0
2017-02-15T03:04:00.843Z,0
2017-02-15T03:05:09.919Z,0
2017-02-15T03:06:19.259Z,0
2017-02-15T03:07:28.245Z,0
2017-02-15T03:08:38.653Z,0
2017-02-15T03:09:47.880Z,0
2017-02-15T03:10:57.885Z,0
2017-02-15T03:12:08.047Z,0
2017-02-15T03:13:19.047Z,0
2017-02-15T03:14:28.530Z,0
2017-02-15T03:15:37.551Z,0
2017-02-15T03:16:47.645Z,0
2017-02-15T03:17:58.363Z,0
2017-02-15T03:19:09.141Z,0
2017-02-15T03:20:18.995Z,0
2017-02-15T03:21:28.879Z,0
2017-02-15T03:22:39.622Z,0
2017-02-15T03:23:49.338Z,0
2017-02-15T03:25:00.120Z,0
2017-02-15T03:26:09.480Z,0
2017-02-15T03:27:19.216Z,0
2017-02-15T03:28:28.311Z,0
2017-02-15T03:29:38.355Z,0
2017-02-15T03:30:47.348Z,0
2017-02-15T03:31:57.459Z,0
2017-02-15T03:33:07.741Z,0
2017-02-15T03:34:17.285Z,0
2017-02-15T03:35:26.930Z,0
2017-02-15T03:36:36.977Z,0
2017-02-15T03:37:49.710Z,0
2017-02-15T03:39:00.692Z,0
2017-02-15T03:40:10.441Z,0
2017-02-15T03:41:19.440Z,0
2017-02-15T03:42:29.435Z,0
2017-02-15T03:43:39.630Z,0
2017-02-15T03:44:48.786Z,0
2017-02-15T03:45:58.767Z,0
2017-02-15T03:47:09.244Z,0
2017-02-15T03:48:19.645Z,0
2017-02-15T03:49:30.144Z,0
2017-02-15T03:50:40.906Z,0
2017-02-15T03:51:51.193Z,0
2017-02-15T03:53:01.438Z,0
2017-02-15T03:54:12.058Z,0
2017-02-15T03:55:22.232Z,0
2017-02-15T03:56:31.481Z,0
2017-02-15T03:57:41.574Z,0
2017-02-15T03:58:51.408Z,0
2017-02-15T04:00:01.896Z,0
2017-02-15T04:01:11.051Z,0
2017-02-15T04:02:20.956Z,0
2017-02-15T04:03:30.171Z,0
2017-02-15T04:04:39.463Z,0
2017-02-15T04:05:48.597Z,0
2017-02-15T04:06:58.484Z,0
2017-02-15T04:08:07.579Z,0
2017-02-15T04:09:17.426Z,0
2017-02-15T04:10:27.337Z,0
2017-02-15T04:11:36.463Z,0
2017-02-15T04:12:46.582Z,0
2017-02-15T04:13:56.889Z,0
2017-02-15T04:15:05.893Z,0
2017-02-15T04:16:15.263Z,0
2017-02-15T04:17:24.280Z,0
2017-02-15T04:18:34.798Z,0
2017-02-15T04:19:44.594Z,0
2017-02-15T04:20:53.583Z,0
2017-02-15T04:22:02.566Z,0
2017-02-15T04:23:12.071Z,0
2017-02-15T04:24:21.061Z,0
2017-02-15T04:25:31.674Z,0
2017-02-15T04:26:44.695Z,0
2017-02-15T04:27:53.776Z,0
2017-02-15T04:29:03.546Z,0
2017-02-15T04:30:13.077Z,0
2017-02-15T04:31:22.776Z,0
2017-02-15T04:32:31.804Z,0
2017-02-15T04:33:41.727Z,0
2017-02-15T04:34:51.200Z,0
2017-02-15T04:36:01.322Z,0
2017-02-15T04:37:11.848Z,0
2017-02-15T04:38:22.239Z,0
2017-02-15T04:39:31.997Z,0
2017-02-15T04:40:41.010Z,0
2017-02-15T04:41:50.776Z,0
2017-02-15T04:43:00.325Z,0
2017-02-15T04:44:10.142Z,0
2017-02-15T04:45:21.053Z,0
2017-02-15T04:46:31.173Z,0
2017-02-15T04:47:40.570Z,0
2017-02-15T04:48:49.957Z,0
2017-02-15T04:49:59.327Z,0
2017-02-15T04:51:08.543Z,0
2017-02-15T04:52:17.525Z,0
2017-02-15T04:53:26.507Z,0
2017-02-15T04:54:35.507Z,0
2017-02-15T04:55:44.497Z,0
2017-02-15T04:56:53.593Z,0
2017-02-15T04:58:02.595Z,0
2017-02-15T04:59:11.581Z,0
2017-02-15T05:00:20.648Z,0
2017-02-15T05:01:29.649Z,0
2017-02-15T05:02:38.652Z,0
2017-02-15T05:03:47.643Z,0
2017-02-15T05:04:56.627Z,0
2017-02-15T05:06:05.610Z,0
2017-02-15T05:07:14.705Z,0
2017-02-15T05:08:23.687Z,0
2017-02-15T05:09:32.683Z,0
2017-02-15T05:10:41.682Z,0
2017-02-15T05:11:50.671Z,0
2017-02-15T05:12:59.652Z,0
2017-02-15T05:14:08.643Z,0
2017-02-15T05:15:17.729Z,0
2017-02-15T05:16:26.808Z,0
2017-02-15T05:17:36.212Z,0
2017-02-15T05:18:45.289Z,0
2017-02-15T05:19:54.286Z,0
2017-02-15T05:21:03.284Z,0
2017-02-15T05:22:12.271Z,0
2017-02-15T05:23:21.253Z,0
2017-02-15T05:24:30.245Z,0
2017-02-15T05:25:39.316Z,0
2017-02-15T05:26:48.299Z,0
2017-02-15T05:27:57.278Z,0
2017-02-15T05:29:06.265Z,0
2017-02-15T05:30:15.340Z,0
2017-02-15T05:31:24.342Z,0
2017-02-15T05:32:33.325Z,0
2017-02-15T05:33:42.301Z,0
2017-02-15T05:34:51.387Z,0
2017-02-15T05:36:00.382Z,0
2017-02-15T05:37:09.370Z,0
2017-02-15T05:38:18.376Z,0
2017-02-15T05:39:27.442Z,0
2017-02-15T05:40:36.426Z,0
2017-02-15T05:41:45.408Z,0
2017-02-15T05:42:54.399Z,0
2017-02-15T05:44:03.396Z,0
2017-02-15T05:45:12.396Z,0
2017-02-15T05:46:21.381Z,0
2017-02-15T05:47:30.450Z,0
2017-02-15T05:48:39.508Z,0
2017-02-15T05:49:48.499Z,0
2017-02-15T05:50:57.489Z,0
2017-02-15T05:52:06.488Z,0
2017-02-15T05:53:15.491Z,0
2017-02-15T05:54:24.466Z,0
2017-02-15T05:55:33.972Z,0
2017-02-15T05:56:42.957Z,0
2017-02-15T05:57:51.952Z,0
2017-02-15T05:59:00.946Z,0
2017-02-15T06:00:09.933Z,0
2017-02-15T06:01:19.022Z,0
2017-02-15T06:02:28.009Z,0
2017-02-15T06:03:37.088Z,0
2017-02-15T06:04:46.243Z,0
2017-02-15T06:05:55.353Z,0
2017-02-15T06:07:04.359Z,0
2017-02-15T06:08:13.443Z,0
2017-02-15T06:09:22.442Z,0
2017-02-15T06:10:31.833Z,0
2017-02-15T06:11:40.837Z,0
2017-02-15T06:12:49.832Z,0
2017-02-15T06:13:58.817Z,0
2017-02-15T06:15:08.301Z,0
2017-02-15T06:16:17.718Z,0
2017-02-15T06:17:26.800Z,0
2017-02-15T06:18:35.884Z,0
2017-02-15T06:19:44.869Z,0
2017-02-15T06:20:53.849Z,0
2017-02-15T06:22:02.832Z,0
2017-02-15T06:23:11.850Z,0
2017-02-15T06:24:20.855Z,0
2017-02-15T06:25:29.835Z,0
2017-02-15T06:26:38.835Z,0
2017-02-15T06:27:48.239Z,5
2017-02-15T06:28:57.315Z,5
2017-02-15T06:30:06.722Z,5
2017-02-15T06:31:15.793Z,5
2017-02-15T06:32:24.882Z,5
2017-02-15T06:33:34.299Z,5
2017-02-15T06:34:43.308Z,5
2017-02-15T06:35:52.286Z,5
2017-02-15T06:37:01.377Z,5
2017-02-15T06:38:10.773Z,5
2017-02-15T06:39:19.771Z,5
2017-02-15T06:40:28.752Z,10
2017-02-15T06:41:38.168Z,10
2017-02-15T06:42:47.149Z,10
2017-02-15T06:43:56.151Z,10
2017-02-15T06:45:05.145Z,10
2017-02-15T06:46:14.132Z,10
2017-02-15T06:47:23.114Z,10
2017-02-15T06:48:32.109Z,10
2017-02-15T06:49:41.102Z,10
2017-02-15T06:50:50.119Z,15
2017-02-15T06:51:59.109Z,15
2017-02-15T06:53:08.108Z,15
2017-02-15T06:54:17.172Z,15
2017-02-15T06:55:26.348Z,15
2017-02-15T06:56:35.334Z,15
2017-02-15T06:57:44.416Z,15
2017-02-15T06:58:53.424Z,15
2017-02-15T07:00:02.426Z,15
2017-02-15T07:01:11.513Z,15
2017-02-15T07:02:20.585Z,20
2017-02-15T07:03:29.984Z,20
2017-02-15T07:04:38.991Z,20
2017-02-15T07:05:47.987Z,20
2017-02-15T07:06:57.392Z,20
2017-02-15T07:08:06.416Z,20
2017-02-15T07:09:15.612Z,20
2017-02-15T07:10:24.611Z,20
2017-02-15T07:11:34.334Z,20
2017-02-15T07:12:43.813Z,20
2017-02-15T07:13:52.972Z,20
2017-02-15T07:15:02.015Z,25
2017-02-15T07:16:10.998Z,25
2017-02-15T07:17:19.976Z,25
2017-02-15T07:18:28.955Z,25
2017-02-15T07:19:38.777Z,25
2017-02-15T07:20:48.207Z,25
2017-02-15T07:21:57.282Z,25
2017-02-15T07:23:06.682Z,25
2017-02-15T07:24:15.672Z,25
2017-02-15T07:25:25.075Z,25
2017-02-15T07:26:34.062Z,25
2017-02-15T07:27:43.065Z,30
2017-02-15T07:28:52.063Z,30
2017-02-15T07:30:12.684Z,30
2017-02-15T07:31:22.835Z,30
2017-02-15T07:32:31.825Z,30
2017-02-15T07:33:40.817Z,30
2017-02-15T07:34:49.801Z,30
2017-02-15T07:35:58.798Z,30
2017-02-15T07:37:07.794Z,30
2017-02-15T07:38:16.781Z,35
2017-02-15T07:39:25.782Z,35
2017-02-15T07:40:34.793Z,35
2017-02-15T07:41:43.785Z,35
2017-02-15T07:42:52.773Z,35
2017-02-15T07:44:01.895Z,35
2017-02-15T07:45:10.873Z,35
2017-02-15T07:46:19.948Z,35
2017-02-15T07:47:29.045Z,35
2017-02-15T07:48:38.041Z,35
2017-02-15T07:49:47.031Z,35
2017-02-15T07:50:56.150Z,35
2017-02-15T07:52:05.554Z,35
2017-02-15T07:53:14.577Z,35
2017-02-15T07:54:23.566Z,35
2017-02-15T07:55:32.555Z,35
2017-02-15T07:56:41.558Z,40
2017-02-15T07:57:50.726Z,40
2017-02-15T07:58:59.711Z,40
2017-02-15T08:00:08.803Z,40
2017-02-15T08:01:17.801Z,40
2017-02-15T08:02:26.785Z,40
2017-02-15T08:03:35.784Z,40
2017-02-15T08:04:45.201Z,40
2017-02-15T08:05:54.197Z,40
2017-02-15T08:07:03.173Z,40
2017-02-15T08:08:12.155Z,40
2017-02-15T08:09:21.133Z,40
2017-02-15T08:10:30.153Z,45
2017-02-15T08:11:39.134Z,45
2017-02-15T08:12:48.149Z,45
2017-02-15T08:13:57.146Z,45
2017-02-15T08:15:06.136Z,45
2017-02-15T08:16:15.579Z,45
2017-02-15T08:17:24.597Z,45
2017-02-15T08:18:33.702Z,45
2017-02-15T08:19:42.688Z,45
2017-02-15T08:20:51.679Z,45
2017-02-15T08:22:01.181Z,45
2017-02-15T08:23:10.254Z,45
2017-02-15T08:24:19.234Z,45
2017-02-15T08:25:28.230Z,45
2017-02-15T08:26:37.228Z,45
2017-02-15T08:27:46.204Z,45
2017-02-15T08:28:55.192Z,50
2017-02-15T08:30:04.182Z,50
2017-02-15T08:31:13.191Z,50
2017-02-15T08:32:22.268Z,50
2017-02-15T08:33:31.656Z,50
2017-02-15T08:34:40.644Z,50
2017-02-15T08:35:49.655Z,50
2017-02-15T08:36:58.748Z,50
2017-02-15T08:38:07.743Z,50
2017-02-15T08:39:16.822Z,50
2017-02-15T08:40:25.833Z,50
2017-02-15T08:41:34.825Z,50
2017-02-15T08:42:43.832Z,50
2017-02-15T08:43:52.833Z,50
2017-02-15T08:45:01.828Z,50
2017-02-15T08:46:10.825Z,50
2017-02-15T08:47:19.898Z,50
2017-02-15T08:48:29.300Z,50
2017-02-15T08:49:38.375Z,50
2017-02-15T08:50:47.459Z,50
2017-02-15T08:51:56.531Z,55
2017-02-15T08:53:05.534Z,55
2017-02-15T08:54:14.526Z,55
2017-02-15T08:55:23.556Z,55
2017-02-15T08:56:33.042Z,55
2017-02-15T08:57:42.033Z,55
2017-02-15T08:58:51.024Z,55
2017-02-15T09:00:00.020Z,55
2017-02-15T09:01:09.400Z,55
2017-02-15T09:02:18.399Z,55
2017-02-15T09:03:27.486Z,55
2017-02-15T09:04:36.664Z,55
2017-02-15T09:05:45.691Z,55
2017-02-15T09:06:55.088Z,55
2017-02-15T09:08:04.070Z,55
2017-02-15T09:09:13.067Z,55
2017-02-15T09:10:22.171Z,55
2017-02-15T09:11:31.659Z,55
2017-02-15T09:12:40.649Z,55
2017-02-15T09:13:49.653Z,55
2017-02-15T09:14:59.053Z,55
2017-02-15T09:16:08.051Z,55
2017-02-15T09:17:17.067Z,55
2017-02-15T09:18:26.154Z,55
2017-02-15T09:19:35.228Z,55
2017-02-15T09:20:44.237Z,55
2017-02-15T09:21:53.230Z,60
2017-02-15T09:23:02.220Z,60
2017-02-15T09:24:11.216Z,60
2017-02-15T09:25:20.265Z,60
2017-02-15T09:26:29.262Z,60
2017-02-15T09:27:38.243Z,60
2017-02-15T09:28:47.227Z,60
2017-02-15T09:29:56.206Z,60
2017-02-15T09:31:05.314Z,60
2017-02-15T09:32:14.400Z,60
2017-02-15T09:33:24.533Z,60
2017-02-15T09:34:34.086Z,60
2017-02-15T09:35:43.724Z,60
2017-02-15T09:36:52.999Z,60
2017-02-15T09:38:02.089Z,60
2017-02-15T09:39:11.476Z,60
2017-02-15T09:40:20.551Z,60
2017-02-15T09:41:30.578Z,60
2017-02-15T09:42:39.563Z,60
2017-02-15T09:43:49.194Z,60
2017-02-15T09:44:58.185Z,60
2017-02-15T09:46:07.183Z,60
2017-02-15T09:47:19.697Z,60
2017-02-15T09:48:29.568Z,60
2017-02-15T09:49:39.012Z,60
2017-02-15T09:50:47.997Z,60
2017-02-15T09:51:56.998Z,60
2017-02-15T09:53:05.993Z,65
2017-02-15T09:54:14.987Z,60
2017-02-15T09:55:24.541Z,65
2017-02-15T09:56:33.543Z,65
2017-02-15T09:57:42.552Z,65
2017-02-15T09:58:52.266Z,65
2017-02-15T10:00:01.254Z,65
2017-02-15T10:01:10.250Z,65
2017-02-15T10:02:20.333Z,65
2017-02-15T10:03:30.045Z,65
2017-02-15T10:04:39.730Z,65
2017-02-15T10:05:48.924Z,65
2017-02-15T10:06:57.937Z,65
2017-02-15T10:08:07.641Z,65
2017-02-15T10:09:18.803Z,65
2017-02-15T10:10:28.856Z,65
2017-02-15T10:11:39.447Z,65
2017-02-15T10:12:50.934Z,65
2017-02-15T10:14:00.845Z,65
2017-02-15T10:15:11.071Z,65
2017-02-15T10:16:21.309Z,65
2017-02-15T10:17:31.191Z,65
2017-02-15T10:18:40.802Z,65
2017-02-15T10:19:50.361Z,65
2017-02-15T10:21:00.388Z,65
2017-02-15T10:22:10.206Z,65
2017-02-15T10:23:21.337Z,65
2017-02-15T10:24:30.608Z,65
2017-02-15T10:25:39.806Z,65
2017-02-15T10:26:49.200Z,65
2017-02-15T10:27:58.296Z,65
2017-02-15T10:29:07.333Z,65
2017-02-15T10:30:16.337Z,65
2017-02-15T10:31:25.355Z,65
2017-02-15T10:32:34.335Z,65
2017-02-15T10:33:43.346Z,65
2017-02-15T10:34:52.516Z,65
2017-02-15T10:36:01.535Z,65
2017-02-15T10:37:10.557Z,65
2017-02-15T10:38:19.579Z,65
2017-02-15T10:39:28.581Z,65
2017-02-15T10:40:38.063Z,65
2017-02-15T10:41:47.149Z,65
2017-02-15T10:42:56.133Z,65
2017-02-15T10:44:05.140Z,65
2017-02-15T10:45:14.144Z,65
2017-02-15T10:46:23.216Z,65
2017-02-15T10:47:32.206Z,65
2017-02-15T10:48:41.212Z,65
2017-02-15T10:49:50.206Z,65
2017-02-15T10:50:59.209Z,65
2017-02-15T10:52:08.193Z,65
2017-02-15T10:53:17.173Z,65
2017-02-15T10:54:26.197Z,70
2017-02-15T10:55:35.186Z,70
2017-02-15T10:56:44.974Z,70
2017-02-15T10:57:54.848Z,70
2017-02-15T10:59:03.851Z,65
2017-02-15T11:00:12.863Z,65
2017-02-15T11:01:21.870Z,70
2017-02-15T11:02:30.988Z,70
2017-02-15T11:03:39.988Z,65
2017-02-15T11:04:48.976Z,70
2017-02-15T11:05:57.964Z,70
2017-02-15T11:07:07.400Z,70
2017-02-15T11:08:16.402Z,70
2017-02-15T11:09:25.420Z,70
2017-02-15T11:10:34.509Z,70
2017-02-15T11:11:43.495Z,70
2017-02-15T11:12:52.590Z,70
2017-02-15T11:14:01.585Z,70
2017-02-15T11:15:10.581Z,70
2017-02-15T11:16:19.569Z,70
2017-02-15T11:17:28.608Z,70
2017-02-15T11:18:37.707Z,70
2017-02-15T11:19:46.713Z,70
2017-02-15T11:20:55.731Z,70
2017-02-15T11:22:04.741Z,70
2017-02-15T11:23:13.744Z,70
2017-02-15T11:24:22.830Z,70
2017-02-15T11:25:31.819Z,70
2017-02-15T11:26:40.840Z,70
2017-02-15T11:27:49.934Z,70
2017-02-15T11:28:59.356Z,70
2017-02-15T11:30:08.375Z,70
2017-02-15T11:31:17.374Z,70
2017-02-15T11:32:26.399Z,70
2017-02-15T11:33:35.407Z,70
2017-02-15T11:34:44.412Z,70
2017-02-15T11:35:53.423Z,70
2017-02-15T11:37:02.427Z,70
2017-02-15T11:38:11.434Z,70
2017-02-15T11:39:20.443Z,70
2017-02-15T11:40:29.455Z,70
2017-02-15T11:41:38.448Z,70
2017-02-15T11:42:47.444Z,70
2017-02-15T11:43:56.431Z,70
2017-02-15T11:45:05.441Z,70
2017-02-15T11:46:14.524Z,70
2017-02-15T11:47:23.534Z,70
2017-02-15T11:48:32.527Z,70
2017-02-15T11:49:41.514Z,70
2017-02-15T11:50:50.837Z,70
2017-02-15T11:52:00.841Z,70
2017-02-15T11:53:11.286Z,70
2017-02-15T11:54:20.281Z,70
2017-02-15T11:55:29.838Z,70
2017-02-15T11:56:40.108Z,70
2017-02-15T11:57:50.040Z,70
2017-02-15T11:58:59.302Z,70
2017-02-15T12:00:08.412Z,70
2017-02-15T12:01:17.945Z,70
2017-02-15T12:02:27.590Z,70
2017-02-15T12:03:37.101Z,70
2017-02-15T12:04:46.810Z,70
2017-02-15T12:05:55.803Z,70
2017-02-15T12:07:05.408Z,70
2017-02-15T12:08:14.920Z,70
2017-02-15T12:09:25.014Z,70
2017-02-15T12:10:34.944Z,70
2017-02-15T12:11:44.656Z,70
2017-02-15T12:12:54.743Z,65
2017-02-15T12:14:05.111Z,65
2017-02-15T12:15:14.969Z,65
2017-02-15T12:16:25.731Z,65
2017-02-15T12:17:34.752Z,65
2017-02-15T12:18:43.947Z,65
2017-02-15T12:19:53.350Z,65
2017-02-15T12:21:02.900Z,65
2017-02-15T12:22:13.019Z,65
2017-02-15T12:23:22.885Z,65
2017-02-15T12:24:31.895Z,65
2017-02-15T12:25:41.234Z,65
2017-02-15T12:26:50.596Z,65
2017-02-15T12:28:00.916Z,65
2017-02-15T12:29:09.977Z,65
2017-02-15T12:30:19.938Z,65
2017-02-15T12:31:30.004Z,65
2017-02-15T12:32:39.011Z,65
2017-02-15T12:33:48.754Z,65
2017-02-15T12:34:57.756Z,65
2017-02-15T12:36:06.742Z,65
2017-02-15T12:37:15.744Z,65
2017-02-15T12:38:24.751Z,65
2017-02-15T12:39:33.748Z,65
2017-02-15T12:40:43.460Z,65
2017-02-15T12:41:53.557Z,65
2017-02-15T12:43:03.289Z,65
2017-02-15T12:44:12.957Z,65
2017-02-15T12:45:23.053Z,65
2017-02-15T12:46:33.079Z,65
2017-02-15T12:47:42.493Z,65
2017-02-15T12:48:52.413Z,60
2017-02-15T12:50:02.464Z,60
2017-02-15T12:51:12.093Z,60
2017-02-15T12:52:21.961Z,60
2017-02-15T12:53:33.040Z,60
2017-02-15T12:54:45.674Z,60
2017-02-15T12:55:56.397Z,60
2017-02-15T12:57:06.699Z,60
2017-02-15T12:58:16.450Z,60
2017-02-15T12:59:26.287Z,60
2017-02-15T13:00:35.883Z,60
2017-02-15T13:01:45.522Z,60
2017-02-15T13:03:00.928Z,60
2017-02-15T13:04:11.328Z,60
2017-02-15T13:05:20.329Z,60
2017-02-15T13:06:29.341Z,60
2017-02-15T13:07:38.353Z,60
2017-02-15T13:08:47.377Z,60
2017-02-15T13:09:56.559Z,60
2017-02-15T13:11:05.571Z,60
2017-02-15T13:12:14.594Z,60
2017-02-15T13:13:23.603Z,60
2017-02-15T13:14:32.625Z,60
2017-02-15T13:15:41.624Z,60
2017-02-15T13:16:50.635Z,60
2017-02-15T13:17:59.641Z,60
2017-02-15T13:19:08.646Z,60
2017-02-15T13:20:17.983Z,60
2017-02-15T13:21:28.048Z,60
2017-02-15T13:22:37.366Z,60
2017-02-15T13:23:46.704Z,60
2017-02-15T13:24:55.702Z,55
2017-02-15T13:26:04.701Z,60
2017-02-15T13:27:14.551Z,70
2017-02-15T13:28:24.045Z,75
2017-02-15T13:29:33.139Z,65
2017-02-15T13:30:42.139Z,55
2017-02-15T13:31:52.577Z,55
2017-02-15T13:33:01.583Z,55
2017-02-15T13:34:10.704Z,55
2017-02-15T13:35:19.731Z,55
2017-02-15T13:36:28.739Z,55
2017-02-15T13:37:37.737Z,55
2017-02-15T13:38:46.720Z,55
2017-02-15T13:39:55.713Z,55
2017-02-15T13:41:04.718Z,55
2017-02-15T13:42:13.733Z,55
2017-02-15T13:43:22.838Z,55
2017-02-15T13:44:31.840Z,55
2017-02-15T13:45:40.951Z,55
2017-02-15T13:46:49.939Z,60
2017-02-15T13:47:58.941Z,60
2017-02-15T13:49:07.959Z,55
2017-02-15T13:50:17.355Z,55
2017-02-15T13:51:26.364Z,55
2017-02-15T13:52:35.365Z,50
2017-02-15T13:53:44.439Z,50
2017-02-15T13:54:53.443Z,50
2017-02-15T13:56:02.431Z,50
2017-02-15T13:57:11.415Z,50
2017-02-15T13:58:20.506Z,50
2017-02-15T13:59:29.518Z,50
2017-02-15T14:00:39.033Z,50
2017-02-15T14:01:48.031Z,50
2017-02-15T14:02:57.029Z,50
2017-02-15T14:04:06.223Z,50
2017-02-15T14:05:15.311Z,50
2017-02-15T14:06:24.305Z,50
2017-02-15T14:07:33.303Z,50
2017-02-15T14:08:42.422Z,50
2017-02-15T14:09:51.416Z,50
2017-02-15T14:11:00.440Z,50
2017-02-15T14:12:09.458Z,45
2017-02-15T14:13:18.445Z,45
2017-02-15T14:14:27.467Z,45
2017-02-15T14:15:36.462Z,45
2017-02-15T14:16:45.475Z,45
2017-02-15T14:17:54.468Z,45
2017-02-15T14:19:03.468Z,45
2017-02-15T14:20:12.466Z,45
2017-02-15T14:21:21.467Z,45
2017-02-15T14:22:30.455Z,45
2017-02-15T14:23:39.459Z,45
2017-02-15T14:24:48.538Z,45
2017-02-15T14:25:58.021Z,45
2017-02-15T14:27:07.018Z,45
2017-02-15T14:28:16.013Z,45
2017-02-15T14:29:25.178Z,40
2017-02-15T14:30:34.360Z,40
2017-02-15T14:31:43.455Z,40
2017-02-15T14:32:52.468Z,40
2017-02-15T14:34:02.147Z,40
2017-02-15T14:35:11.734Z,40
2017-02-15T14:36:21.979Z,40
2017-02-15T14:37:31.987Z,40
2017-02-15T14:38:40.977Z,40
2017-02-15T14:39:50.202Z,40
2017-02-15T14:41:01.063Z,40
2017-02-15T14:42:10.350Z,40
2017-02-15T14:43:19.615Z,40
2017-02-15T14:44:29.353Z,40
2017-02-15T14:45:40.252Z,35
2017-02-15T14:46:50.955Z,35
2017-02-15T14:48:00.373Z,35
2017-02-15T14:49:10.412Z,35
2017-02-15T14:50:19.406Z,35
2017-02-15T14:51:28.926Z,35
2017-02-15T14:52:37.985Z,35
2017-02-15T14:53:48.184Z,35
2017-02-15T14:54:57.258Z,35
2017-02-15T14:56:06.850Z,35
2017-02-15T14:57:16.301Z,35
2017-02-15T14:58:25.337Z,35
2017-02-15T14:59:34.356Z,30
2017-02-15T15:00:43.804Z,30
2017-02-15T15:01:52.815Z,30
2017-02-15T15:03:02.161Z,30
2017-02-15T15:04:11.472Z,30
2017-02-15T15:05:20.867Z,30
2017-02-15T15:06:30.132Z,30
2017-02-15T15:07:39.217Z,30
2017-02-15T15:08:49.190Z,30
2017-02-15T15:09:59.193Z,30
2017-02-15T15:11:08.629Z,30
2017-02-15T15:12:17.959Z,30
2017-02-15T15:13:27.472Z,25
2017-02-15T15:14:36.852Z,25
2017-02-15T15:15:46.729Z,25
2017-02-15T15:16:56.606Z,25
2017-02-15T15:18:05.886Z,25
2017-02-15T15:19:15.471Z,25
2017-02-15T15:20:24.621Z,25
2017-02-15T15:21:34.011Z,25
2017-02-15T15:22:43.418Z,25
2017-02-15T15:23:52.610Z,25
2017-02-15T15:25:02.271Z,25
2017-02-15T15:26:11.892Z,20
2017-02-15T15:27:21.760Z,20
2017-02-15T15:28:30.892Z,20
2017-02-15T15:29:41.922Z,20
2017-02-15T15:30:51.324Z,20
2017-02-15T15:32:00.785Z,20
2017-02-15T15:33:10.165Z,20
2017-02-15T15:34:20.230Z,20
2017-02-15T15:35:30.658Z,20
2017-02-15T15:36:40.718Z,20
2017-02-15T15:37:49.942Z,20
2017-02-15T15:38:59.553Z,15
2017-02-15T15:40:08.943Z,15
2017-02-15T15:41:18.051Z,15
2017-02-15T15:42:27.565Z,15
2017-02-15T15:43:37.122Z,15
2017-02-15T15:44:47.439Z,15
2017-02-15T15:45:57.265Z,15
2017-02-15T15:47:06.801Z,15
2017-02-15T15:48:16.477Z,15
2017-02-15T15:49:26.658Z,15
2017-02-15T15:50:36.525Z,10
2017-02-15T15:51:47.091Z,10
2017-02-15T15:52:56.981Z,10
2017-02-15T15:54:07.766Z,10
2017-02-15T15:55:17.057Z,10
2017-02-15T15:56:26.562Z,10
2017-02-15T15:57:36.169Z,10
2017-02-15T15:58:46.695Z,10
2017-02-15T15:59:56.767Z,10
2017-02-15T16:01:07.724Z,10
2017-02-15T16:02:17.483Z,5
2017-02-15T16:03:26.728Z,5
2017-02-15T16:04:36.170Z,5
2017-02-15T16:05:45.737Z,5
2017-02-15T16:06:55.509Z,5
2017-02-15T16:08:04.962Z,5
2017-02-15T16:09:14.499Z,5
2017-02-15T16:10:23.818Z,5
2017-02-15T16:11:33.552Z,5
2017-02-15T16:12:43.470Z,5
2017-02-15T16:13:53.364Z,5
2017-02-15T16:15:03.082Z,0
2017-02-15T16:16:12.559Z,0
2017-02-15T16:17:22.018Z,0
2017-02-15T16:18:31.310Z,0
2017-02-15T16:19:40.976Z,0
2017-02-15T16:20:50.069Z,0
2017-02-15T16:21:59.071Z,0
2017-02-15T16:23:08.155Z,0
2017-02-15T16:24:17.170Z,0
2017-02-15T16:25:26.180Z,0
2017-02-15T16:26:35.173Z,0
2017-02-15T16:27:44.186Z,0
2017-02-15T16:28:53.196Z,0
2017-02-15T16:30:02.189Z,0
2017-02-15T16:31:11.595Z,0
2017-02-15T16:32:20.591Z,0
2017-02-15T16:33:29.587Z,0
2017-02-15T16:34:38.982Z,0
2017-02-15T16:35:48.077Z,0
2017-02-15T16:36:57.074Z,0
2017-02-15T16:38:06.161Z,0
2017-02-15T16:39:15.159Z,0
2017-02-15T16:40:24.183Z,0
2017-02-15T16:41:33.165Z,0
2017-02-15T16:42:42.249Z,0
2017-02-15T16:43:51.247Z,0
2017-02-15T16:45:00.948Z,0